Allardt, Tennessee
Current Conditions -  °F | °C
As of 3:53 PM on Friday 24 Oct 2014 (Local Time) from KCSV Reporting Station
Clear Clear  
Wind Chill: 68°   Ceiling: Unl
Heat Index: 68°   Visibility: 10mi
Dew Point: 37°   Wind: 7mph
Humidity: 32%   Direction: 20°NNE
Pressure: 30.06"   Gusts: NA
Location:  36.38°N, 84.88°W
Report Text: KCSV 242053Z AUTO 02006KT 10SM CLR 20/03 A3006 RMK AO2 SLP171 T02000028 56010
Loading
Personal Weather Stations






























Interactive Weather Map
Tropical Storm Tracking
New forecast layout! Learn more

10-Day Weather Forecast

Advertisements
Track Severe Weather on mobile